Time;durP1;ratioP1;P1;durP2;ratioP2;P2;SDS_P1;SDS_P2;PMS_P1;PMS_P2;Temp;Humidity;BMP_temperature;BMP_pressure;BME280_temperature;BME280_humidity;BME280_pressure;Samples;Min_cycle;Max_cycle;Signal;HPM_P1;HPM_P2
2021/12/13 00:02:29;;;;;;;87.85;28.20;;;;;;;9.29;100.00;102433.22;5027703;28;20029;-65
2021/12/13 00:05:06;;;;;;;91.10;30.05;;;;;;;9.30;100.00;102431.41;5028076;28;20029;-73
2021/12/13 00:07:35;;;;;;;77.95;27.90;;;;;;;9.22;100.00;102420.19;5029440;28;20036;-73
2021/12/13 00:10:11;;;;;;;101.15;33.50;;;;;;;9.23;100.00;102421.94;5025701;28;20219;-65
2021/12/13 00:12:40;;;;;;;82.45;27.58;;;;;;;9.39;100.00;102424.78;5028098;28;20021;-65
2021/12/13 00:15:11;;;;;;;93.10;30.83;;;;;;;9.33;100.00;102433.09;5008855;28;20128;-65
2021/12/13 00:17:39;;;;;;;87.38;28.95;;;;;;;9.27;100.00;102434.25;5027024;28;20044;-65
2021/12/13 00:20:12;;;;;;;98.57;32.70;;;;;;;9.36;100.00;102433.81;5028959;28;20021;-66
2021/12/13 00:22:50;;;;;;;74.45;26.83;;;;;;;9.21;100.00;102434.53;5027143;28;20025;-66
2021/12/13 00:25:26;;;;;;;96.55;31.52;;;;;;;9.17;100.00;102438.28;5026509;28;20029;-66
2021/12/13 00:28:00;;;;;;;89.07;30.27;;;;;;;9.25;100.00;102444.19;5027907;28;20025;-66
2021/12/13 00:30:25;;;;;;;97.45;32.22;;;;;;;9.24;100.00;102448.66;5025989;28;20025;-65
2021/12/13 00:33:12;;;;;;;83.65;27.77;;;;;;;9.21;100.00;102447.94;5027631;28;20048;-65
2021/12/13 00:35:46;;;;;;;72.35;26.75;;;;;;;9.12;100.00;102427.81;5025055;28;20029;-66
2021/12/13 00:38:12;;;;;;;82.88;30.08;;;;;;;9.15;100.00;102441.91;5027376;28;20088;-72
2021/12/13 00:40:42;;;;;;;99.70;35.90;;;;;;;9.10;100.00;102437.72;5028205;28;20084;-72
2021/12/13 00:43:12;;;;;;;78.95;28.50;;;;;;;9.23;100.00;102457.63;5026156;28;20114;-73
2021/12/13 00:45:43;;;;;;;71.28;26.77;;;;;;;9.26;100.00;102459.31;5027791;28;20033;-73
2021/12/13 00:48:09;;;;;;;87.45;31.83;;;;;;;9.17;100.00;102459.72;5008550;28;20056;-72
2021/12/13 00:50:54;;;;;;;88.35;28.60;;;;;;;9.23;100.00;102467.50;5027579;28;20391;-72
2021/12/13 00:53:21;;;;;;;77.93;27.02;;;;;;;9.22;100.00;102471.13;5027556;28;20033;-73
2021/12/13 00:55:47;;;;;;;67.75;27.40;;;;;;;9.05;100.00;102463.84;5007879;28;20033;-66
2021/12/13 00:58:17;;;;;;;75.65;27.00;;;;;;;9.08;100.00;102467.25;5028694;28;20040;-73
2021/12/13 01:00:50;;;;;;;66.65;26.85;;;;;;;9.09;100.00;102465.44;5026695;28;20028;-73
2021/12/13 01:03:36;;;;;;;68.00;25.20;;;;;;;8.99;100.00;102455.13;5027091;28;20037;-72
2021/12/13 01:06:45;;;;;;;67.28;25.98;;;;;;;9.18;100.00;102446.25;5026881;28;20531;-66
2021/12/13 01:09:35;;;;;;;71.80;31.10;;;;;;;9.24;100.00;102472.78;5026214;28;20025;-66
2021/12/13 01:12:05;;;;;;;67.43;24.88;;;;;;;9.14;100.00;102474.13;5026420;28;20518;-72
2021/12/13 01:14:36;;;;;;;76.45;28.00;;;;;;;9.21;100.00;102478.28;5024836;28;20492;-66
2021/12/13 01:17:16;;;;;;;63.42;25.42;;;;;;;9.09;100.00;102478.84;5030448;28;20083;-66
2021/12/13 01:19:53;;;;;;;64.55;24.45;;;;;;;9.03;100.00;102479.13;5009376;28;20041;-66
2021/12/13 01:22:52;;;;;;;75.25;29.13;;;;;;;9.15;100.00;102479.44;5012282;28;20033;-65
2021/12/13 01:25:59;;;;;;;62.17;23.08;;;;;;;9.17;100.00;102484.72;5023183;28;20033;-66
2021/12/13 01:28:31;;;;;;;66.63;27.10;;;;;;;9.15;100.00;102491.94;5010688;28;20045;-73
2021/12/13 01:31:09;;;;;;;62.55;24.65;;;;;;;9.11;100.00;102483.19;5025431;28;20108;-66
2021/12/13 01:33:39;;;;;;;56.67;23.38;;;;;;;8.90;100.00;102481.47;5024788;28;20025;-66
2021/12/13 01:36:06;;;;;;;66.05;27.23;;;;;;;9.09;100.00;102493.09;5025743;28;20033;-65
2021/12/13 01:38:36;;;;;;;52.47;22.25;;;;;;;9.07;100.00;102486.09;5026422;28;20091;-71
2021/12/13 01:41:08;;;;;;;50.33;20.60;;;;;;;8.87;100.00;102482.50;5026257;28;20850;-66
2021/12/13 01:43:38;;;;;;;53.50;20.88;;;;;;;9.06;100.00;102487.03;5024230;28;20034;-65
2021/12/13 01:46:04;;;;;;;59.03;23.88;;;;;;;9.20;100.00;102494.44;5025871;28;20490;-66
2021/12/13 01:48:35;;;;;;;43.03;19.73;;;;;;;8.97;100.00;102497.19;5025619;28;20025;-66
2021/12/13 01:51:05;;;;;;;51.25;22.42;;;;;;;8.80;100.00;102489.91;5024888;28;20496;-66
2021/12/13 01:53:45;;;;;;;44.38;20.58;;;;;;;8.82;100.00;102509.47;4996816;28;20417;-66
2021/12/13 01:56:55;;;;;;;49.55;20.35;;;;;;;8.89;100.00;102483.28;5026863;28;20033;-65
2021/12/13 01:59:51;;;;;;;45.95;20.23;;;;;;;8.89;100.00;102496.66;5020550;28;20555;-66
2021/12/13 02:02:24;;;;;;;50.60;21.23;;;;;;;8.98;100.00;102506.97;5027340;28;20079;-73
2021/12/13 02:05:01;;;;;;;46.63;19.67;;;;;;;8.76;100.00;102507.03;5024942;28;20129;-72
2021/12/13 02:07:35;;;;;;;45.20;17.98;;;;;;;8.66;100.00;102492.34;5010055;28;20033;-73
2021/12/13 02:10:01;;;;;;;63.17;27.33;;;;;;;8.91;100.00;102494.78;5024087;28;20048;-72
2021/12/13 02:12:29;;;;;;;58.15;24.20;;;;;;;8.82;100.00;102498.75;5008397;28;20052;-72
2021/12/13 02:17:44;;;;;;;58.15;24.77;;;;;;;8.78;100.00;102494.47;5009758;28;20499;-66
2021/12/13 02:20:12;;;;;;;52.72;24.85;;;;;;;8.75;100.00;102496.41;5025534;28;20029;-66
2021/12/13 02:22:40;;;;;;;52.65;21.58;;;;;;;8.81;100.00;102491.66;5025146;28;20083;-67
2021/12/13 02:25:12;;;;;;;58.03;20.90;;;;;;;8.83;100.00;102497.81;5025010;28;20617;-66
2021/12/13 02:27:41;;;;;;;59.05;23.13;;;;;;;8.84;100.00;102490.66;5025367;28;20496;-65
2021/12/13 02:30:34;;;;;;;57.85;22.98;;;;;;;8.79;100.00;102498.03;5026178;28;20025;-66
2021/12/13 02:33:00;;;;;;;55.30;23.10;;;;;;;8.74;100.00;102500.03;5025091;28;20037;-65
2021/12/13 02:35:30;;;;;;;47.92;19.15;;;;;;;8.69;100.00;102503.78;5022364;28;20033;-74
2021/12/13 02:37:58;;;;;;;59.05;23.33;;;;;;;8.73;100.00;102500.97;5024128;28;20029;-72
2021/12/13 02:40:23;;;;;;;58.78;21.85;;;;;;;8.59;100.00;102494.41;5024222;28;20021;-72
2021/12/13 02:42:50;;;;;;;60.65;22.50;;;;;;;8.59;100.00;102505.13;5024423;28;20047;-73
2021/12/13 02:45:25;;;;;;;56.08;22.15;;;;;;;8.54;100.00;102501.75;5024737;28;20037;-72
2021/12/13 02:47:57;;;;;;;53.90;20.63;;;;;;;8.54;100.00;102505.28;5022785;28;20071;-73
2021/12/13 02:50:28;;;;;;;62.67;26.00;;;;;;;8.73;100.00;102509.00;5019990;28;20036;-72
2021/12/13 02:52:54;;;;;;;62.30;23.38;;;;;;;8.80;100.00;102495.25;5019271;28;20048;-73
2021/12/13 02:55:28;;;;;;;61.83;24.17;;;;;;;8.66;100.00;102477.13;5024975;28;20148;-72
2021/12/13 02:57:54;;;;;;;71.80;30.65;;;;;;;8.72;100.00;102494.75;5017625;28;20021;-72
2021/12/13 03:00:46;;;;;;;69.28;28.75;;;;;;;8.85;100.00;102495.09;5024473;28;20040;-72
2021/12/13 03:03:16;;;;;;;72.38;25.38;;;;;;;8.82;100.00;102500.56;5021662;28;20029;-73
2021/12/13 03:05:44;;;;;;;62.30;22.83;;;;;;;8.87;100.00;102501.25;5021618;28;20061;-72
2021/12/13 03:08:18;;;;;;;61.70;26.42;;;;;;;8.83;100.00;102492.44;5025657;28;20040;-72
2021/12/13 03:10:50;;;;;;;56.42;21.85;;;;;;;8.78;100.00;102497.13;5026013;28;20048;-73
2021/12/13 03:13:17;;;;;;;58.78;22.55;;;;;;;8.66;100.00;102493.19;5024050;28;20414;-73
2021/12/13 03:15:48;;;;;;;66.40;24.50;;;;;;;8.61;100.00;102495.19;5024564;28;20021;-72
2021/12/13 03:18:20;;;;;;;57.83;20.65;;;;;;;8.72;100.00;102492.06;5006827;28;20036;-66
2021/12/13 03:21:09;;;;;;;63.30;21.70;;;;;;;8.90;100.00;102494.88;5025715;28;20037;-65
2021/12/13 03:24:12;;;;;;;62.83;22.48;;;;;;;8.55;100.00;102507.03;5007425;28;20028;-66
2021/12/13 03:26:49;;;;;;;59.17;22.40;;;;;;;8.49;100.00;102506.44;5024157;28;20063;-66
2021/12/13 03:30:03;;;;;;;59.83;25.27;;;;;;;8.64;100.00;102511.13;5023670;28;20072;-73
2021/12/13 03:32:39;;;;;;;65.63;21.58;;;;;;;8.60;100.00;102506.88;4972055;28;20046;-73
2021/12/13 03:35:22;;;;;;;71.68;26.92;;;;;;;8.80;100.00;102505.97;5026833;28;20389;-73
2021/12/13 03:37:56;;;;;;;78.67;27.73;;;;;;;8.64;100.00;102507.59;5029799;28;20516;-73
2021/12/13 03:40:25;;;;;;;67.60;27.00;;;;;;;8.74;100.00;102505.38;5028462;28;20060;-71
2021/12/13 03:42:54;;;;;;;56.05;21.05;;;;;;;8.47;100.00;102509.16;5025005;28;20053;-73
2021/12/13 03:45:34;;;;;;;54.10;19.30;;;;;;;8.49;100.00;102503.75;5027935;28;20547;-73
2021/12/13 03:48:00;;;;;;;49.40;18.38;;;;;;;8.46;100.00;102517.25;5027211;28;20044;-73
2021/12/13 03:50:36;;;;;;;61.55;23.67;;;;;;;8.50;100.00;102516.22;5030965;28;20431;-66
2021/12/13 03:53:10;;;;;;;75.60;30.40;;;;;;;8.77;100.00;102510.59;5025501;28;20029;-65
2021/12/13 03:55:36;;;;;;;62.70;22.30;;;;;;;8.60;100.00;102506.88;5029625;28;20159;-73
2021/12/13 03:58:06;;;;;;;53.63;20.98;;;;;;;8.37;100.00;102495.25;5023863;28;20484;-66
2021/12/13 04:00:36;;;;;;;58.97;21.55;;;;;;;8.49;100.00;102506.44;5030049;28;20052;-65
2021/12/13 04:03:05;;;;;;;57.67;22.23;;;;;;;8.46;100.00;102514.56;5026599;28;20060;-66
2021/12/13 04:05:31;;;;;;;64.22;21.70;;;;;;;8.34;100.00;102505.25;5029195;28;20124;-74
2021/12/13 04:08:00;;;;;;;59.28;20.50;;;;;;;8.36;100.00;102506.91;5028112;28;20116;-73
2021/12/13 04:10:36;;;;;;;70.53;29.95;;;;;;;8.78;100.00;102510.53;5032133;28;20021;-71
2021/12/13 04:13:10;;;;;;;58.00;21.35;;;;;;;8.67;100.00;102516.34;5028142;28;20039;-72
2021/12/13 04:15:58;;;;;;;69.82;26.85;;;;;;;8.67;100.00;102521.72;5028145;28;20420;-72
2021/12/13 04:19:05;;;;;;;59.30;22.08;;;;;;;8.48;100.00;102515.38;5027439;28;20120;-73
2021/12/13 04:21:18;;;;;;;64.75;25.52;;;;;;;8.37;100.00;102505.97;5026016;28;20045;-72
2021/12/13 04:23:55;;;;;;;58.97;21.92;;;;;;;8.47;100.00;102517.19;5027811;28;20044;-73
2021/12/13 04:26:22;;;;;;;64.15;23.45;;;;;;;8.43;100.00;102518.25;5027555;28;20686;-73
2021/12/13 04:28:55;;;;;;;62.65;22.83;;;;;;;8.39;100.00;102504.09;5024804;28;20052;-73
2021/12/13 04:31:25;;;;;;;75.22;27.98;;;;;;;8.47;100.00;102516.31;5026828;28;20028;-66
2021/12/13 04:34:00;;;;;;;71.95;26.40;;;;;;;8.48;100.00;102510.00;5025551;28;20033;-66
2021/12/13 04:36:42;;;;;;;76.95;28.40;;;;;;;8.50;100.00;102506.34;5027582;28;20025;-66
2021/12/13 04:39:16;;;;;;;67.88;24.05;;;;;;;8.46;100.00;102514.56;5028273;28;20393;-73
2021/12/13 04:41:46;;;;;;;71.85;27.83;;;;;;;8.44;100.00;102517.31;5008088;28;20104;-73
2021/12/13 04:44:16;;;;;;;70.35;25.05;;;;;;;8.41;100.00;102520.13;5026925;28;20117;-73
2021/12/13 04:46:44;;;;;;;60.47;22.50;;;;;;;8.41;100.00;102526.31;5027793;28;20104;-73
2021/12/13 04:49:13;;;;;;;80.45;32.08;;;;;;;8.56;100.00;102524.00;5009592;28;20025;-73
2021/12/13 04:52:03;;;;;;;69.05;31.38;;;;;;;8.53;100.00;102516.94;5026306;28;20025;-73
2021/12/13 04:54:32;;;;;;;76.80;31.63;;;;;;;8.77;100.00;102521.31;5028164;28;20060;-72
2021/12/13 04:56:58;;;;;;;67.70;29.67;;;;;;;8.63;100.00;102520.09;5026468;28;20025;-72
2021/12/13 04:59:26;;;;;;;71.20;30.77;;;;;;;8.53;100.00;102516.94;5026905;28;20040;-73
2021/12/13 05:01:54;;;;;;;52.25;21.27;;;;;;;8.28;100.00;102518.88;5026560;28;20167;-73
2021/12/13 05:04:21;;;;;;;60.03;19.95;;;;;;;8.20;100.00;102524.53;5026196;28;20040;-73
2021/12/13 05:06:48;;;;;;;63.67;24.27;;;;;;;8.32;100.00;102518.69;5010613;28;20439;-72
2021/12/13 05:09:16;;;;;;;52.85;20.13;;;;;;;8.31;100.00;102519.63;5028853;28;20469;-73
2021/12/13 05:11:46;;;;;;;62.10;26.13;;;;;;;8.48;100.00;102524.28;5028173;28;20037;-73
2021/12/13 05:14:12;;;;;;;61.78;25.08;;;;;;;8.40;100.00;102518.38;5027798;28;20119;-73
2021/12/13 05:16:51;;;;;;;51.60;19.90;;;;;;;8.24;100.00;102523.50;5025282;28;20030;-73
2021/12/13 05:19:26;;;;;;;58.50;20.80;;;;;;;8.35;100.00;102515.88;5028072;28;20021;-73
2021/12/13 05:21:54;;;;;;;55.78;20.40;;;;;;;8.24;100.00;102524.34;5026375;28;20029;-66
2021/12/13 05:24:22;;;;;;;53.72;19.27;;;;;;;8.16;100.00;102525.59;5009414;28;20040;-66
2021/12/13 05:27:04;;;;;;;72.45;29.08;;;;;;;8.39;100.00;102521.97;5025577;28;20087;-65
2021/12/13 05:29:40;;;;;;;56.78;22.80;;;;;;;8.59;100.00;102526.53;5025963;28;20030;-67
2021/12/13 05:32:07;;;;;;;52.63;21.67;;;;;;;8.44;100.00;102521.78;5027371;28;20061;-66
2021/12/13 05:34:36;;;;;;;57.40;24.73;;;;;;;8.31;100.00;102530.34;5027789;28;20045;-66
2021/12/13 05:37:04;;;;;;;61.63;28.45;;;;;;;8.60;100.00;102524.72;5007569;28;20069;-66
2021/12/13 05:39:29;;;;;;;69.93;31.58;;;;;;;8.66;100.00;102521.78;5026577;28;20106;-66
2021/12/13 05:42:08;;;;;;;59.03;27.83;;;;;;;8.70;100.00;102520.72;5024513;28;20029;-65
2021/12/13 05:44:37;;;;;;;53.08;24.15;;;;;;;8.40;100.00;102524.59;5027327;28;20028;-66
2021/12/13 05:47:06;;;;;;;47.38;20.33;;;;;;;8.24;100.00;102536.88;5023310;28;20033;-66
2021/12/13 05:49:36;;;;;;;55.50;26.05;;;;;;;8.38;100.00;102517.56;5028680;28;20021;-66
2021/12/13 05:52:13;;;;;;;45.42;18.23;;;;;;;8.29;100.00;102529.53;5007089;28;20026;-66
2021/12/13 05:54:44;;;;;;;46.72;20.80;;;;;;;8.41;100.00;102534.34;5026391;28;20034;-66
2021/12/13 05:57:29;;;;;;;45.88;19.95;;;;;;;8.25;100.00;102527.91;5025965;28;20021;-73
2021/12/13 06:00:06;;;;;;;48.55;18.83;;;;;;;8.32;100.00;102521.38;5026490;28;20026;-66
2021/12/13 06:02:49;;;;;;;47.47;19.17;;;;;;;8.26;100.00;102529.66;5025879;28;20071;-66
2021/12/13 06:05:24;;;;;;;48.80;19.00;;;;;;;8.23;100.00;102537.81;5028560;28;20068;-66
2021/12/13 06:07:56;;;;;;;52.20;19.88;;;;;;;8.37;100.00;102523.84;5025752;28;20040;-66
2021/12/13 06:10:27;;;;;;;43.60;17.92;;;;;;;8.21;100.00;102531.63;5027726;28;20063;-66
2021/12/13 06:12:55;;;;;;;49.00;17.38;;;;;;;8.29;100.00;102542.91;5025123;28;20028;-66
2021/12/13 06:15:27;;;;;;;52.45;21.65;;;;;;;8.29;100.00;102539.34;5026532;28;20021;-66
2021/12/13 06:17:59;;;;;;;45.70;16.90;;;;;;;8.29;100.00;102542.91;5008790;28;20385;-66
2021/12/13 06:20:53;;;;;;;51.65;21.88;;;;;;;8.31;100.00;102525.00;5009133;28;20069;-66
2021/12/13 06:23:26;;;;;;;46.35;17.83;;;;;;;8.30;100.00;102546.44;5024578;28;20506;-66
2021/12/13 06:26:05;;;;;;;48.63;22.17;;;;;;;8.35;100.00;102542.63;5008401;28;20025;-72
2021/12/13 06:28:34;;;;;;;46.20;19.15;;;;;;;8.48;100.00;102548.38;5023611;28;20029;-74
2021/12/13 06:31:34;;;;;;;44.95;18.65;;;;;;;8.26;100.00;102551.91;5023440;28;20100;-73
2021/12/13 06:34:04;;;;;;;47.60;16.35;;;;;;;8.17;100.00;102551.41;5025161;28;20423;-73
2021/12/13 06:36:34;;;;;;;39.05;17.20;;;;;;;8.21;100.00;102564.59;5007558;28;20048;-66
2021/12/13 06:39:17;;;;;;;41.85;19.00;;;;;;;8.09;100.00;102544.56;5017484;28;20029;-66
2021/12/13 06:41:47;;;;;;;38.88;16.10;;;;;;;8.10;100.00;102556.16;5019964;28;20033;-66
2021/12/13 06:44:20;;;;;;;41.28;17.15;;;;;;;8.21;100.00;102547.69;5025378;28;20041;-65
2021/12/13 06:46:49;;;;;;;39.85;16.15;;;;;;;8.20;100.00;102562.00;5019456;28;20100;-66
2021/12/13 06:49:22;;;;;;;40.70;18.73;;;;;;;8.26;100.00;102562.63;5021575;28;20029;-66
2021/12/13 06:51:58;;;;;;;43.88;17.98;;;;;;;8.33;100.00;102557.03;5020884;28;20029;-65
2021/12/13 06:54:38;;;;;;;44.75;19.83;;;;;;;8.40;100.00;102562.06;5023830;28;20026;-66
2021/12/13 06:57:18;;;;;;;38.45;15.88;;;;;;;8.19;100.00;102568.28;5024414;28;20029;-66
2021/12/13 07:00:25;;;;;;;38.13;17.15;;;;;;;8.22;100.00;102566.34;5024735;28;20092;-66
2021/12/13 07:02:56;;;;;;;30.80;14.23;;;;;;;8.20;100.00;102573.59;5022590;28;20044;-66
2021/12/13 07:05:32;;;;;;;39.53;15.20;;;;;;;8.23;100.00;102576.13;5021533;28;20561;-66
2021/12/13 07:08:16;;;;;;;38.58;14.52;;;;;;;8.11;100.00;102577.47;5024828;28;20026;-73
2021/12/13 07:10:46;;;;;;;43.97;17.02;;;;;;;8.18;100.00;102554.06;5026798;28;20025;-72
2021/12/13 07:13:29;;;;;;;39.78;16.23;;;;;;;8.09;100.00;102571.31;5022203;28;20568;-73
2021/12/13 07:16:00;;;;;;;32.17;14.98;;;;;;;8.28;100.00;102577.75;5028312;28;20033;-73
2021/12/13 07:18:37;;;;;;;40.83;17.52;;;;;;;8.35;100.00;102577.44;5025071;28;20025;-66
2021/12/13 07:21:14;;;;;;;37.85;18.90;;;;;;;8.21;100.00;102571.78;5026458;28;20053;-65
2021/12/13 07:24:05;;;;;;;43.63;21.60;;;;;;;8.41;100.00;102589.72;5024045;28;20025;-72
2021/12/13 07:26:53;;;;;;;33.60;14.20;;;;;;;8.04;100.00;102580.47;5022277;28;20034;-66
2021/12/13 07:29:30;;;;;;;35.08;14.05;;;;;;;8.08;100.00;102580.28;5021840;28;20101;-66
2021/12/13 07:32:10;;;;;;;34.58;15.55;;;;;;;8.23;100.00;102591.31;5019956;28;20033;-66
2021/12/13 07:35:31;;;;;;;30.70;14.88;;;;;;;8.29;100.00;102584.84;5025268;28;20071;-74
2021/12/13 07:38:00;;;;;;;40.65;18.75;;;;;;;8.35;100.00;102593.47;5000182;28;20033;-72
2021/12/13 07:40:28;;;;;;;37.38;16.80;;;;;;;8.46;100.00;102595.75;5025194;28;20035;-73
2021/12/13 07:43:15;;;;;;;34.55;15.00;;;;;;;8.14;100.00;102603.25;5025153;28;20034;-73
2021/12/13 07:45:43;;;;;;;38.70;18.20;;;;;;;8.41;100.00;102592.38;5021669;28;20040;-66
2021/12/13 07:48:21;;;;;;;39.63;16.45;;;;;;;8.23;100.00;102612.72;5023063;28;20037;-66
2021/12/13 07:51:00;;;;;;;42.15;21.15;;;;;;;8.71;100.00;102618.88;5026084;28;20420;-65
2021/12/13 07:53:32;;;;;;;32.95;14.18;;;;;;;8.20;100.00;102596.78;5022522;28;20029;-66
2021/12/13 07:55:58;;;;;;;39.42;21.83;;;;;;;8.69;100.00;102613.56;5010629;28;20030;-66
2021/12/13 07:58:37;;;;;;;37.55;18.80;;;;;;;8.34;100.00;102599.78;5026096;28;20037;-72
2021/12/13 08:01:14;;;;;;;31.17;14.45;;;;;;;8.07;100.00;102616.00;5023642;28;20017;-66
2021/12/13 08:03:44;;;;;;;32.45;13.57;;;;;;;8.02;100.00;102620.66;5027380;28;20051;-74
2021/12/13 08:06:10;;;;;;;35.17;18.02;;;;;;;8.37;100.00;102622.88;5006845;28;20036;-74
2021/12/13 08:08:46;;;;;;;37.10;14.63;;;;;;;8.26;100.00;102628.66;5027653;28;20033;-72
2021/12/13 08:11:11;;;;;;;31.65;15.00;;;;;;;8.10;100.00;102625.72;5025664;28;20112;-74
2021/12/13 08:13:36;;;;;;;32.05;15.02;;;;;;;8.19;100.00;102617.34;5027720;28;20108;-73
2021/12/13 08:16:08;;;;;;;28.52;14.88;;;;;;;8.44;100.00;102624.38;5028111;28;20040;-72
2021/12/13 08:18:42;;;;;;;39.92;21.10;;;;;;;8.65;100.00;102611.94;5025572;28;20101;-72
2021/12/13 08:21:21;;;;;;;30.00;15.00;;;;;;;8.36;100.00;102622.00;5023289;28;20044;-73
2021/12/13 08:23:50;;;;;;;35.42;14.95;;;;;;;8.17;100.00;102619.19;5024586;28;20043;-73
2021/12/13 08:26:36;;;;;;;35.80;18.23;;;;;;;8.16;100.00;102622.81;5026590;28;20489;-73
2021/12/13 08:29:11;;;;;;;34.83;17.73;;;;;;;8.36;100.00;102615.78;5025575;28;20029;-66
2021/12/13 08:31:39;;;;;;;29.35;15.35;;;;;;;8.24;100.00;102607.31;5006746;28;20111;-66
2021/12/13 08:34:31;;;;;;;32.55;15.82;;;;;;;8.31;100.00;102628.47;5026164;28;20033;-66
2021/12/13 08:36:57;;;;;;;34.78;18.27;;;;;;;8.24;100.00;102628.72;4987463;28;20056;-65
2021/12/13 08:39:32;;;;;;;28.05;13.57;;;;;;;8.47;100.00;102626.06;5027555;28;20029;-66
2021/12/13 08:42:10;;;;;;;32.95;18.02;;;;;;;8.41;100.00;102616.47;5025258;28;20075;-74
2021/12/13 08:44:55;;;;;;;28.10;12.60;;;;;;;8.29;100.00;102625.88;5027122;28;20025;-73
2021/12/13 08:47:26;;;;;;;36.42;15.63;;;;;;;8.34;100.00;102620.31;5004958;28;20603;-66
2021/12/13 08:49:56;;;;;;;40.53;19.80;;;;;;;8.81;100.00;102605.97;5026087;28;20439;-66
2021/12/13 08:52:31;;;;;;;31.38;14.43;;;;;;;8.41;100.00;102606.63;5025958;28;20043;-66
2021/12/13 08:55:04;;;;;;;29.67;13.77;;;;;;;8.35;100.00;102620.25;5020981;28;20037;-66
2021/12/13 08:57:35;;;;;;;32.05;17.75;;;;;;;8.55;100.00;102627.50;5022621;28;20025;-72
2021/12/13 09:00:16;;;;;;;25.00;12.20;;;;;;;8.33;100.00;102613.22;5026261;28;20041;-73
2021/12/13 09:02:46;;;;;;;30.77;12.43;;;;;;;8.19;100.00;102620.00;5027025;28;20366;-73
2021/12/13 09:05:19;;;;;;;35.65;17.25;;;;;;;8.68;100.00;102616.31;5028212;28;20049;-73
2021/12/13 09:07:51;;;;;;;33.42;14.45;;;;;;;8.66;100.00;102628.91;5029047;28;20021;-73
2021/12/13 09:10:18;;;;;;;32.60;17.73;;;;;;;8.59;100.00;102620.25;5005874;28;20021;-73
2021/12/13 09:12:45;;;;;;;29.75;18.85;;;;;;;8.81;100.00;102622.88;5026450;28;20738;-72
2021/12/13 09:15:25;;;;;;;25.70;12.43;;;;;;;8.21;100.00;102636.84;5026767;28;20396;-73
2021/12/13 09:17:51;;;;;;;26.10;13.40;;;;;;;8.33;100.00;102624.81;5019404;28;20033;-72
2021/12/13 09:20:32;;;;;;;27.13;13.10;;;;;;;8.39;100.00;102632.59;5022197;28;20041;-73
2021/12/13 09:23:17;;;;;;;24.17;12.38;;;;;;;8.58;100.00;102642.59;5023787;28;20515;-73
2021/12/13 09:25:50;;;;;;;26.40;14.52;;;;;;;8.70;100.00;102646.59;5023832;28;20484;-66
2021/12/13 09:28:20;;;;;;;24.27;12.85;;;;;;;8.49;100.00;102659.88;5023019;28;20025;-66
2021/12/13 09:31:25;;;;;;;26.48;13.85;;;;;;;8.43;100.00;102662.78;5024329;28;20073;-66
2021/12/13 09:33:54;;;;;;;23.95;11.98;;;;;;;8.59;100.00;102664.88;5023675;28;20045;-67
2021/12/13 09:36:23;;;;;;;24.88;12.05;;;;;;;8.43;100.00;102646.72;5023591;28;20044;-66
2021/12/13 09:39:04;;;;;;;22.05;10.45;;;;;;;8.24;100.00;102673.34;5026308;28;20029;-66
2021/12/13 09:41:32;;;;;;;22.08;11.52;;;;;;;8.45;100.00;102674.31;5023194;28;20033;-66
2021/12/13 09:44:03;;;;;;;19.48;9.60;;;;;;;8.53;100.00;102676.72;5019596;28;20029;-66
2021/12/13 09:46:28;;;;;;;22.08;10.90;;;;;;;8.55;100.00;102683.75;5017923;28;20033;-66
2021/12/13 09:48:56;;;;;;;24.77;11.70;;;;;;;8.39;100.00;102680.75;5023726;28;20435;-66
2021/12/13 09:51:37;;;;;;;20.63;10.70;;;;;;;8.33;100.00;102683.69;5028188;28;20071;-66
2021/12/13 09:54:05;;;;;;;25.70;12.18;;;;;;;8.59;100.00;102689.88;5025574;28;20552;-66
2021/12/13 09:56:36;;;;;;;20.02;9.40;;;;;;;8.35;100.00;102691.66;5010771;28;20080;-73
2021/12/13 09:59:14;;;;;;;19.35;10.00;;;;;;;8.39;100.00;102702.19;5021083;28;20033;-74
2021/12/13 10:01:40;;;;;;;20.83;13.98;;;;;;;8.73;100.00;102692.00;5022034;28;20028;-72
2021/12/13 10:04:15;;;;;;;20.25;10.10;;;;;;;8.39;100.00;102701.31;5022156;28;20029;-73
2021/12/13 10:06:49;;;;;;;19.75;10.32;;;;;;;8.50;100.00;102699.09;5022255;28;20021;-73
2021/12/13 10:09:20;;;;;;;;;;;;;;;8.45;100.00;102702.88;5023919;28;20083;-74
2021/12/13 10:11:53;;;;;;;22.45;12.65;;;;;;;8.87;100.00;102694.09;5022356;28;20039;-73
2021/12/13 10:14:24;;;;;;;18.95;11.32;;;;;;;8.72;100.00;102695.59;5019135;28;20052;-66
2021/12/13 10:16:54;;;;;;;19.70;9.93;;;;;;;8.55;100.00;102690.91;5020888;28;20555;-73
2021/12/13 10:19:25;;;;;;;18.88;13.48;;;;;;;8.84;100.00;102684.38;5022447;28;20079;-73
2021/12/13 10:21:50;;;;;;;15.63;8.98;;;;;;;8.41;100.00;102686.94;5019992;28;20026;-73
2021/12/13 10:24:21;;;;;;;14.40;8.32;;;;;;;8.44;100.00;102695.78;5023479;28;20033;-74
2021/12/13 10:26:48;;;;;;;16.08;8.65;;;;;;;8.45;100.00;102697.53;5021957;28;20036;-73
2021/12/13 10:29:14;;;;;;;16.92;9.15;;;;;;;8.43;100.00;102677.97;5021240;28;20104;-73
2021/12/13 10:31:50;;;;;;;16.63;8.63;;;;;;;8.53;100.00;102674.03;5023629;28;20017;-67
2021/12/13 10:34:22;;;;;;;16.10;9.90;;;;;;;8.38;100.00;102676.34;5025256;28;20389;-73
2021/12/13 10:36:53;;;;;;;16.05;9.02;;;;;;;8.45;100.00;102678.78;5022626;28;20630;-66
2021/12/13 10:39:24;;;;;;;19.58;11.70;;;;;;;8.70;100.00;102681.41;5024276;28;20048;-66
2021/12/13 10:41:52;;;;;;;15.32;7.47;;;;;;;8.53;100.00;102680.25;5021543;28;20500;-66
2021/12/13 10:44:26;;;;;;;18.90;11.05;;;;;;;8.75;100.00;102667.81;5018287;28;20029;-66
2021/12/13 10:46:54;;;;;;;17.48;9.25;;;;;;;8.57;100.00;102677.44;5016005;28;20029;-66
2021/12/13 10:49:24;;;;;;;16.05;8.68;;;;;;;8.57;100.00;102678.34;5025676;28;20040;-66
2021/12/13 10:52:04;;;;;;;18.80;10.10;;;;;;;8.70;100.00;102668.00;5020482;28;20030;-73
2021/12/13 10:54:37;;;;;;;15.98;8.65;;;;;;;8.60;100.00;102678.22;5023853;28;20112;-73
2021/12/13 10:57:14;;;;;;;20.15;9.00;;;;;;;8.54;100.00;102675.78;5021561;28;20021;-73
2021/12/13 10:59:40;;;;;;;14.18;7.15;;;;;;;8.56;100.00;102679.28;5021143;28;21461;-73
2021/12/13 11:02:12;;;;;;;13.07;6.65;;;;;;;8.48;100.00;102670.63;5019639;28;20756;-74
2021/12/13 11:04:42;;;;;;;12.35;8.13;;;;;;;8.69;100.00;102674.28;5020246;28;21376;-66
2021/12/13 11:07:10;;;;;;;12.57;7.88;;;;;;;8.88;100.00;102673.53;5022243;28;20041;-66
2021/12/13 11:09:37;;;;;;;16.38;11.77;;;;;;;9.23;100.00;102679.22;5022728;28;20033;-65
2021/12/13 11:12:19;;;;;;;17.60;9.85;;;;;;;8.77;100.00;102663.28;5022710;28;21545;-66
2021/12/13 11:14:47;;;;;;;16.45;9.57;;;;;;;8.94;100.00;102676.81;5018822;28;20037;-66
2021/12/13 11:17:15;;;;;;;12.52;7.15;;;;;;;8.67;100.00;102660.94;5020650;28;20025;-74
2021/12/13 11:19:46;;;;;;;14.32;9.30;;;;;;;8.74;100.00;102661.56;5022715;28;20033;-66
2021/12/13 11:22:18;;;;;;;16.85;7.95;;;;;;;8.77;100.00;102663.28;5022306;28;20030;-67
2021/12/13 11:24:48;;;;;;;13.48;8.00;;;;;;;8.73;100.00;102662.53;5022139;28;20076;-66
2021/12/13 11:27:20;;;;;;;13.65;9.40;;;;;;;8.89;100.00;102660.06;5022421;28;20053;-66
2021/12/13 11:29:47;;;;;;;13.30;7.60;;;;;;;8.61;100.00;102666.56;5021464;28;20025;-67
2021/12/13 11:32:38;;;;;;;12.43;9.73;;;;;;;8.75;100.00;102667.81;5022249;28;20044;-66
2021/12/13 11:35:06;;;;;;;13.43;7.55;;;;;;;8.68;100.00;102668.06;5022190;28;20033;-66
2021/12/13 11:37:59;;;;;;;11.02;7.50;;;;;;;8.70;100.00;102676.91;5020763;28;20032;-67
2021/12/13 11:40:46;;;;;;;12.43;7.68;;;;;;;8.69;100.00;102667.13;5021978;28;20029;-66
2021/12/13 11:43:45;;;;;;;11.80;7.38;;;;;;;8.66;100.00;102669.06;5021776;28;20037;-66
2021/12/13 11:46:26;;;;;;;11.30;8.30;;;;;;;8.79;100.00;102662.25;5022077;28;20103;-66